sensor_id;sensor_type;location;lat;lon;timestamp;temperature;humidity
21744;DHT22;11034;48.556;9.342;2024-03-02T00:01:09;5.80;99.90
21744;DHT22;11034;48.556;9.342;2024-03-02T00:03:38;5.80;99.90
21744;DHT22;11034;48.556;9.342;2024-03-02T00:06:07;5.80;99.90
21744;DHT22;11034;48.556;9.342;2024-03-02T00:08:35;5.80;99.90
21744;DHT22;11034;48.556;9.342;2024-03-02T00:11:03;5.80;99.90
21744;DHT22;11034;48.556;9.342;2024-03-02T00:13:32;5.80;99.90
21744;DHT22;11034;48.556;9.342;2024-03-02T00:16:02;5.80;99.90
21744;DHT22;11034;48.556;9.342;2024-03-02T00:18:35;5.80;99.90
21744;DHT22;11034;48.556;9.342;2024-03-02T00:21:05;5.80;99.90
21744;DHT22;11034;48.556;9.342;2024-03-02T00:23:36;5.80;99.90
21744;DHT22;11034;48.556;9.342;2024-03-02T00:26:05;5.80;99.90
21744;DHT22;11034;48.556;9.342;2024-03-02T00:28:36;5.80;99.90
21744;DHT22;11034;48.556;9.342;2024-03-02T00:31:06;5.80;99.90
21744;DHT22;11034;48.556;9.342;2024-03-02T00:33:39;5.90;99.90
21744;DHT22;11034;48.556;9.342;2024-03-02T00:36:09;5.90;99.90
21744;DHT22;11034;48.556;9.342;2024-03-02T00:38:44;5.80;99.90
21744;DHT22;11034;48.556;9.342;2024-03-02T00:41:21;5.80;99.90
21744;DHT22;11034;48.556;9.342;2024-03-02T00:43:57;5.70;99.90
21744;DHT22;11034;48.556;9.342;2024-03-02T00:46:27;5.60;99.90
21744;DHT22;11034;48.556;9.342;2024-03-02T00:48:59;5.60;99.90
21744;DHT22;11034;48.556;9.342;2024-03-02T00:51:29;5.50;99.90
21744;DHT22;11034;48.556;9.342;2024-03-02T00:53:59;5.60;99.90
21744;DHT22;11034;48.556;9.342;2024-03-02T00:56:27;5.60;99.90
21744;DHT22;11034;48.556;9.342;2024-03-02T00:58:56;5.60;99.90
21744;DHT22;11034;48.556;9.342;2024-03-02T01:01:24;5.50;99.90
21744;DHT22;11034;48.556;9.342;2024-03-02T01:03:52;5.50;99.90
21744;DHT22;11034;48.556;9.342;2024-03-02T01:06:22;5.50;99.90
21744;DHT22;11034;48.556;9.342;2024-03-02T01:08:51;5.50;99.90
21744;DHT22;11034;48.556;9.342;2024-03-02T01:11:19;5.60;99.90
21744;DHT22;11034;48.556;9.342;2024-03-02T01:13:49;5.60;99.90
21744;DHT22;11034;48.556;9.342;2024-03-02T01:16:18;5.70;99.90
21744;DHT22;11034;48.556;9.342;2024-03-02T01:18:47;5.70;99.90
21744;DHT22;11034;48.556;9.342;2024-03-02T01:21:16;5.80;99.90
21744;DHT22;11034;48.556;9.342;2024-03-02T01:23:45;5.90;99.90
21744;DHT22;11034;48.556;9.342;2024-03-02T01:26:13;5.90;99.90
21744;DHT22;11034;48.556;9.342;2024-03-02T01:28:41;6.00;99.90
21744;DHT22;11034;48.556;9.342;2024-03-02T01:31:09;6.00;99.90
21744;DHT22;11034;48.556;9.342;2024-03-02T01:33:38;6.00;99.90
21744;DHT22;11034;48.556;9.342;2024-03-02T01:36:06;6.00;99.90
21744;DHT22;11034;48.556;9.342;2024-03-02T01:38:35;6.00;99.90
21744;DHT22;11034;48.556;9.342;2024-03-02T01:41:05;6.00;99.90
21744;DHT22;11034;48.556;9.342;2024-03-02T01:43:33;5.90;99.90
21744;DHT22;11034;48.556;9.342;2024-03-02T01:46:03;5.90;99.90
21744;DHT22;11034;48.556;9.342;2024-03-02T01:48:32;5.90;99.90
21744;DHT22;11034;48.556;9.342;2024-03-02T01:51:01;6.00;99.90
21744;DHT22;11034;48.556;9.342;2024-03-02T01:53:29;6.10;99.90
21744;DHT22;11034;48.556;9.342;2024-03-02T01:55:59;6.10;99.90
21744;DHT22;11034;48.556;9.342;2024-03-02T01:58:29;6.10;99.90
21744;DHT22;11034;48.556;9.342;2024-03-02T02:00:57;6.10;99.90
21744;DHT22;11034;48.556;9.342;2024-03-02T02:03:26;6.00;99.90
21744;DHT22;11034;48.556;9.342;2024-03-02T02:05:55;6.00;99.90
21744;DHT22;11034;48.556;9.342;2024-03-02T02:08:23;6.00;99.90
21744;DHT22;11034;48.556;9.342;2024-03-02T02:10:51;6.00;99.90
21744;DHT22;11034;48.556;9.342;2024-03-02T02:13:19;6.00;99.90
21744;DHT22;11034;48.556;9.342;2024-03-02T02:15:49;6.10;99.90
21744;DHT22;11034;48.556;9.342;2024-03-02T02:18:17;6.00;99.90
21744;DHT22;11034;48.556;9.342;2024-03-02T02:20:45;6.00;99.90
21744;DHT22;11034;48.556;9.342;2024-03-02T02:23:14;6.00;99.90
21744;DHT22;11034;48.556;9.342;2024-03-02T02:25:43;5.90;99.90
21744;DHT22;11034;48.556;9.342;2024-03-02T02:28:11;5.90;99.90
21744;DHT22;11034;48.556;9.342;2024-03-02T02:30:39;5.80;99.90
21744;DHT22;11034;48.556;9.342;2024-03-02T02:33:07;5.80;99.90
21744;DHT22;11034;48.556;9.342;2024-03-02T02:35:36;5.70;99.90
21744;DHT22;11034;48.556;9.342;2024-03-02T02:38:04;5.80;99.90
21744;DHT22;11034;48.556;9.342;2024-03-02T02:40:34;5.80;99.90
21744;DHT22;11034;48.556;9.342;2024-03-02T02:43:03;5.80;99.90
21744;DHT22;11034;48.556;9.342;2024-03-02T02:45:31;5.80;99.90
21744;DHT22;11034;48.556;9.342;2024-03-02T02:47:59;5.70;99.90
21744;DHT22;11034;48.556;9.342;2024-03-02T02:50:29;5.60;99.90
21744;DHT22;11034;48.556;9.342;2024-03-02T02:52:57;5.60;99.90
21744;DHT22;11034;48.556;9.342;2024-03-02T02:55:25;5.70;99.90
21744;DHT22;11034;48.556;9.342;2024-03-02T02:57:55;5.70;99.90
21744;DHT22;11034;48.556;9.342;2024-03-02T03:00:23;5.70;99.90
21744;DHT22;11034;48.556;9.342;2024-03-02T03:02:51;5.70;99.90
21744;DHT22;11034;48.556;9.342;2024-03-02T03:05:20;5.70;99.90
21744;DHT22;11034;48.556;9.342;2024-03-02T03:07:48;5.70;99.90
21744;DHT22;11034;48.556;9.342;2024-03-02T03:10:17;5.70;99.90
21744;DHT22;11034;48.556;9.342;2024-03-02T03:12:49;5.80;99.90
21744;DHT22;11034;48.556;9.342;2024-03-02T03:15:18;5.70;99.90
21744;DHT22;11034;48.556;9.342;2024-03-02T03:17:47;5.70;99.90
21744;DHT22;11034;48.556;9.342;2024-03-02T03:20:15;5.80;99.90
21744;DHT22;11034;48.556;9.342;2024-03-02T03:22:43;5.80;99.90
21744;DHT22;11034;48.556;9.342;2024-03-02T03:25:11;5.80;99.90
21744;DHT22;11034;48.556;9.342;2024-03-02T03:27:39;5.80;99.90
21744;DHT22;11034;48.556;9.342;2024-03-02T03:30:09;5.90;99.90
21744;DHT22;11034;48.556;9.342;2024-03-02T03:32:39;5.90;99.90
21744;DHT22;11034;48.556;9.342;2024-03-02T03:35:07;5.80;99.90
21744;DHT22;11034;48.556;9.342;2024-03-02T03:37:36;5.80;99.90
21744;DHT22;11034;48.556;9.342;2024-03-02T03:40:05;5.80;99.90
21744;DHT22;11034;48.556;9.342;2024-03-02T03:42:37;5.80;99.90
21744;DHT22;11034;48.556;9.342;2024-03-02T03:45:06;5.80;99.90
21744;DHT22;11034;48.556;9.342;2024-03-02T03:47:35;5.80;99.90
21744;DHT22;11034;48.556;9.342;2024-03-02T03:50:05;5.80;99.90
21744;DHT22;11034;48.556;9.342;2024-03-02T03:52:34;5.80;99.90
21744;DHT22;11034;48.556;9.342;2024-03-02T03:55:03;5.80;99.90
21744;DHT22;11034;48.556;9.342;2024-03-02T03:57:32;5.70;99.90
21744;DHT22;11034;48.556;9.342;2024-03-02T04:00:00;5.70;99.90
21744;DHT22;11034;48.556;9.342;2024-03-02T04:02:28;5.70;99.90
21744;DHT22;11034;48.556;9.342;2024-03-02T04:04:56;5.70;99.90
21744;DHT22;11034;48.556;9.342;2024-03-02T04:07:26;5.70;99.90
21744;DHT22;11034;48.556;9.342;2024-03-02T04:09:54;5.70;99.90
21744;DHT22;11034;48.556;9.342;2024-03-02T04:12:22;5.70;99.90
21744;DHT22;11034;48.556;9.342;2024-03-02T04:14:50;5.80;99.90
21744;DHT22;11034;48.556;9.342;2024-03-02T04:17:18;5.70;99.90
21744;DHT22;11034;48.556;9.342;2024-03-02T04:19:46;5.80;99.90
21744;DHT22;11034;48.556;9.342;2024-03-02T04:22:14;5.80;99.90
21744;DHT22;11034;48.556;9.342;2024-03-02T04:24:52;5.80;99.90
21744;DHT22;11034;48.556;9.342;2024-03-02T04:27:21;5.70;99.90
21744;DHT22;11034;48.556;9.342;2024-03-02T04:29:49;5.70;99.90
21744;DHT22;11034;48.556;9.342;2024-03-02T04:32:17;5.70;99.90
21744;DHT22;11034;48.556;9.342;2024-03-02T04:34:46;5.70;99.90
21744;DHT22;11034;48.556;9.342;2024-03-02T04:37:14;5.70;99.90
21744;DHT22;11034;48.556;9.342;2024-03-02T04:39:42;5.70;99.90
21744;DHT22;11034;48.556;9.342;2024-03-02T04:42:12;5.60;99.90
21744;DHT22;11034;48.556;9.342;2024-03-02T04:44:40;5.60;99.90
21744;DHT22;11034;48.556;9.342;2024-03-02T04:47:08;5.50;99.90
21744;DHT22;11034;48.556;9.342;2024-03-02T04:49:36;5.50;99.90
21744;DHT22;11034;48.556;9.342;2024-03-02T04:52:05;5.50;99.90
21744;DHT22;11034;48.556;9.342;2024-03-02T04:54:33;5.50;99.90
21744;DHT22;11034;48.556;9.342;2024-03-02T04:57:22;5.50;99.90
21744;DHT22;11034;48.556;9.342;2024-03-02T04:59:51;5.50;99.90
21744;DHT22;11034;48.556;9.342;2024-03-02T05:02:19;5.50;99.90
21744;DHT22;11034;48.556;9.342;2024-03-02T05:04:47;5.40;99.90
21744;DHT22;11034;48.556;9.342;2024-03-02T05:07:15;5.40;99.90
21744;DHT22;11034;48.556;9.342;2024-03-02T05:09:43;5.40;99.90
21744;DHT22;11034;48.556;9.342;2024-03-02T05:12:12;5.40;99.90
21744;DHT22;11034;48.556;9.342;2024-03-02T05:15:04;5.40;99.90
21744;DHT22;11034;48.556;9.342;2024-03-02T05:17:34;5.40;99.90
21744;DHT22;11034;48.556;9.342;2024-03-02T05:20:02;5.40;99.90
21744;DHT22;11034;48.556;9.342;2024-03-02T05:22:31;5.40;99.90
21744;DHT22;11034;48.556;9.342;2024-03-02T05:25:00;5.30;99.90
21744;DHT22;11034;48.556;9.342;2024-03-02T05:27:29;5.30;99.90
21744;DHT22;11034;48.556;9.342;2024-03-02T05:29:58;5.30;99.90
21744;DHT22;11034;48.556;9.342;2024-03-02T05:32:27;5.30;99.90
21744;DHT22;11034;48.556;9.342;2024-03-02T05:34:55;5.30;99.90
21744;DHT22;11034;48.556;9.342;2024-03-02T05:37:23;5.40;99.90
21744;DHT22;11034;48.556;9.342;2024-03-02T05:39:52;5.40;99.90
21744;DHT22;11034;48.556;9.342;2024-03-02T05:42:20;5.40;99.90
21744;DHT22;11034;48.556;9.342;2024-03-02T05:44:48;5.40;99.90
21744;DHT22;11034;48.556;9.342;2024-03-02T05:47:17;5.50;99.90
21744;DHT22;11034;48.556;9.342;2024-03-02T05:49:46;5.60;99.90
21744;DHT22;11034;48.556;9.342;2024-03-02T05:52:14;5.70;99.90
21744;DHT22;11034;48.556;9.342;2024-03-02T05:54:42;5.80;99.90
21744;DHT22;11034;48.556;9.342;2024-03-02T05:57:10;5.80;99.90
21744;DHT22;11034;48.556;9.342;2024-03-02T05:59:58;5.70;99.90
21744;DHT22;11034;48.556;9.342;2024-03-02T06:02:26;5.70;99.90
21744;DHT22;11034;48.556;9.342;2024-03-02T06:04:56;5.60;99.90
21744;DHT22;11034;48.556;9.342;2024-03-02T06:07:24;5.50;99.90
21744;DHT22;11034;48.556;9.342;2024-03-02T06:09:52;5.50;99.90
21744;DHT22;11034;48.556;9.342;2024-03-02T06:12:21;5.40;99.90
21744;DHT22;11034;48.556;9.342;2024-03-02T06:14:49;5.40;99.90
21744;DHT22;11034;48.556;9.342;2024-03-02T06:17:17;5.40;99.90
21744;DHT22;11034;48.556;9.342;2024-03-02T06:19:45;5.40;99.90
21744;DHT22;11034;48.556;9.342;2024-03-02T06:22:16;5.50;99.90
21744;DHT22;11034;48.556;9.342;2024-03-02T06:24:46;5.50;99.90
21744;DHT22;11034;48.556;9.342;2024-03-02T06:27:14;5.60;99.90
21744;DHT22;11034;48.556;9.342;2024-03-02T06:29:43;5.60;99.90
21744;DHT22;11034;48.556;9.342;2024-03-02T06:32:11;5.60;99.90
21744;DHT22;11034;48.556;9.342;2024-03-02T06:34:40;5.60;99.90
21744;DHT22;11034;48.556;9.342;2024-03-02T06:37:08;5.60;99.90
21744;DHT22;11034;48.556;9.342;2024-03-02T06:39:38;5.70;99.90
21744;DHT22;11034;48.556;9.342;2024-03-02T06:42:07;5.80;99.90
21744;DHT22;11034;48.556;9.342;2024-03-02T06:44:35;5.80;99.90
21744;DHT22;11034;48.556;9.342;2024-03-02T06:47:03;5.80;99.90
21744;DHT22;11034;48.556;9.342;2024-03-02T06:49:32;5.80;99.90
21744;DHT22;11034;48.556;9.342;2024-03-02T06:52:01;5.90;99.90
21744;DHT22;11034;48.556;9.342;2024-03-02T06:54:29;5.90;99.90
21744;DHT22;11034;48.556;9.342;2024-03-02T06:56:59;6.00;99.90
21744;DHT22;11034;48.556;9.342;2024-03-02T06:59:27;6.00;99.90
21744;DHT22;11034;48.556;9.342;2024-03-02T07:01:55;6.10;99.90
21744;DHT22;11034;48.556;9.342;2024-03-02T07:04:23;6.10;99.90
21744;DHT22;11034;48.556;9.342;2024-03-02T07:06:52;6.20;99.90
21744;DHT22;11034;48.556;9.342;2024-03-02T07:09:20;6.20;99.90
21744;DHT22;11034;48.556;9.342;2024-03-02T07:11:49;6.30;99.90
21744;DHT22;11034;48.556;9.342;2024-03-02T07:14:19;6.40;99.90
21744;DHT22;11034;48.556;9.342;2024-03-02T07:16:47;6.50;99.90
21744;DHT22;11034;48.556;9.342;2024-03-02T07:19:16;6.60;99.90
21744;DHT22;11034;48.556;9.342;2024-03-02T07:21:44;6.70;99.90
21744;DHT22;11034;48.556;9.342;2024-03-02T07:24:13;6.80;99.90
21744;DHT22;11034;48.556;9.342;2024-03-02T07:26:43;6.90;99.90
21744;DHT22;11034;48.556;9.342;2024-03-02T07:29:14;7.00;99.90
21744;DHT22;11034;48.556;9.342;2024-03-02T07:31:44;7.10;99.90
21744;DHT22;11034;48.556;9.342;2024-03-02T07:34:12;7.20;99.90
21744;DHT22;11034;48.556;9.342;2024-03-02T07:36:40;7.30;99.90
21744;DHT22;11034;48.556;9.342;2024-03-02T07:39:10;7.40;99.90
21744;DHT22;11034;48.556;9.342;2024-03-02T07:41:45;7.40;99.90
21744;DHT22;11034;48.556;9.342;2024-03-02T07:44:13;7.60;99.90
21744;DHT22;11034;48.556;9.342;2024-03-02T07:46:43;7.70;99.90
21744;DHT22;11034;48.556;9.342;2024-03-02T07:49:13;7.80;99.90
21744;DHT22;11034;48.556;9.342;2024-03-02T07:51:44;7.70;99.90
21744;DHT22;11034;48.556;9.342;2024-03-02T07:54:12;7.90;99.90
21744;DHT22;11034;48.556;9.342;2024-03-02T07:56:40;7.80;99.90
21744;DHT22;11034;48.556;9.342;2024-03-02T07:59:09;7.70;99.90
21744;DHT22;11034;48.556;9.342;2024-03-02T08:01:37;7.70;99.90
21744;DHT22;11034;48.556;9.342;2024-03-02T08:04:07;7.80;99.90
21744;DHT22;11034;48.556;9.342;2024-03-02T08:06:35;7.90;99.90
21744;DHT22;11034;48.556;9.342;2024-03-02T08:09:03;7.90;99.90
21744;DHT22;11034;48.556;9.342;2024-03-02T08:11:36;7.90;99.90
21744;DHT22;11034;48.556;9.342;2024-03-02T08:14:05;8.10;99.90
21744;DHT22;11034;48.556;9.342;2024-03-02T08:16:34;8.10;99.90
21744;DHT22;11034;48.556;9.342;2024-03-02T08:19:02;8.10;99.90
21744;DHT22;11034;48.556;9.342;2024-03-02T08:21:32;8.10;99.90
21744;DHT22;11034;48.556;9.342;2024-03-02T08:24:02;8.00;99.90
21744;DHT22;11034;48.556;9.342;2024-03-02T08:26:31;8.00;99.90
21744;DHT22;11034;48.556;9.342;2024-03-02T08:28:59;7.90;99.90
21744;DHT22;11034;48.556;9.342;2024-03-02T08:31:29;7.90;99.90
21744;DHT22;11034;48.556;9.342;2024-03-02T08:33:57;8.00;99.90
21744;DHT22;11034;48.556;9.342;2024-03-02T08:36:25;8.10;99.90
21744;DHT22;11034;48.556;9.342;2024-03-02T08:38:55;8.20;99.90
21744;DHT22;11034;48.556;9.342;2024-03-02T08:41:23;8.30;99.90
21744;DHT22;11034;48.556;9.342;2024-03-02T08:43:52;8.40;99.90
21744;DHT22;11034;48.556;9.342;2024-03-02T08:46:20;8.50;99.90
21744;DHT22;11034;48.556;9.342;2024-03-02T08:48:48;8.60;99.90
21744;DHT22;11034;48.556;9.342;2024-03-02T08:51:16;8.70;99.90
21744;DHT22;11034;48.556;9.342;2024-03-02T08:53:44;8.90;99.90
21744;DHT22;11034;48.556;9.342;2024-03-02T08:56:14;9.00;99.90
21744;DHT22;11034;48.556;9.342;2024-03-02T08:58:43;9.10;99.90
21744;DHT22;11034;48.556;9.342;2024-03-02T09:01:11;9.20;99.90
21744;DHT22;11034;48.556;9.342;2024-03-02T09:03:40;9.30;99.90
21744;DHT22;11034;48.556;9.342;2024-03-02T09:06:08;9.30;99.90
21744;DHT22;11034;48.556;9.342;2024-03-02T09:08:36;9.40;99.90
21744;DHT22;11034;48.556;9.342;2024-03-02T09:11:05;9.50;99.90
21744;DHT22;11034;48.556;9.342;2024-03-02T09:13:36;9.60;99.90
21744;DHT22;11034;48.556;9.342;2024-03-02T09:16:04;9.60;99.90
21744;DHT22;11034;48.556;9.342;2024-03-02T09:18:33;9.60;99.90
21744;DHT22;11034;48.556;9.342;2024-03-02T09:21:01;9.60;99.90
21744;DHT22;11034;48.556;9.342;2024-03-02T09:23:29;9.70;99.90
21744;DHT22;11034;48.556;9.342;2024-03-02T09:25:57;9.70;99.90
21744;DHT22;11034;48.556;9.342;2024-03-02T09:28:25;9.70;99.90
21744;DHT22;11034;48.556;9.342;2024-03-02T09:30:55;9.80;99.90
21744;DHT22;11034;48.556;9.342;2024-03-02T09:33:26;9.90;99.90
21744;DHT22;11034;48.556;9.342;2024-03-02T09:35:55;9.90;99.90
21744;DHT22;11034;48.556;9.342;2024-03-02T09:38:23;10.10;99.90
21744;DHT22;11034;48.556;9.342;2024-03-02T09:40:51;10.10;99.90
21744;DHT22;11034;48.556;9.342;2024-03-02T09:43:19;10.10;99.90
21744;DHT22;11034;48.556;9.342;2024-03-02T09:45:48;10.20;99.90
21744;DHT22;11034;48.556;9.342;2024-03-02T09:48:17;10.20;99.90
21744;DHT22;11034;48.556;9.342;2024-03-02T09:50:47;10.30;99.90
21744;DHT22;11034;48.556;9.342;2024-03-02T09:53:15;10.40;99.90
21744;DHT22;11034;48.556;9.342;2024-03-02T09:55:46;10.50;99.90
21744;DHT22;11034;48.556;9.342;2024-03-02T09:58:14;10.70;99.90
21744;DHT22;11034;48.556;9.342;2024-03-02T10:00:42;10.80;99.90
21744;DHT22;11034;48.556;9.342;2024-03-02T10:03:12;10.80;99.90
21744;DHT22;11034;48.556;9.342;2024-03-02T10:05:41;10.90;99.90
21744;DHT22;11034;48.556;9.342;2024-03-02T10:08:10;10.90;99.90
21744;DHT22;11034;48.556;9.342;2024-03-02T10:10:39;11.00;99.90
21744;DHT22;11034;48.556;9.342;2024-03-02T10:13:10;11.00;99.90
21744;DHT22;11034;48.556;9.342;2024-03-02T10:15:39;11.10;99.90
21744;DHT22;11034;48.556;9.342;2024-03-02T10:18:10;11.20;99.90
21744;DHT22;11034;48.556;9.342;2024-03-02T10:20:42;11.30;99.90
21744;DHT22;11034;48.556;9.342;2024-03-02T10:23:12;11.50;99.90
21744;DHT22;11034;48.556;9.342;2024-03-02T10:25:40;11.60;99.90
21744;DHT22;11034;48.556;9.342;2024-03-02T10:28:23;11.70;99.90
21744;DHT22;11034;48.556;9.342;2024-03-02T10:30:51;11.70;99.90
21744;DHT22;11034;48.556;9.342;2024-03-02T10:33:20;11.60;99.90
21744;DHT22;11034;48.556;9.342;2024-03-02T10:35:50;11.70;99.90
21744;DHT22;11034;48.556;9.342;2024-03-02T10:38:18;11.80;99.90
21744;DHT22;11034;48.556;9.342;2024-03-02T10:40:50;11.90;99.90
21744;DHT22;11034;48.556;9.342;2024-03-02T10:43:19;12.00;99.90
21744;DHT22;11034;48.556;9.342;2024-03-02T10:45:49;12.10;99.90
21744;DHT22;11034;48.556;9.342;2024-03-02T10:48:17;12.20;99.90
21744;DHT22;11034;48.556;9.342;2024-03-02T10:50:45;12.20;99.90
21744;DHT22;11034;48.556;9.342;2024-03-02T10:53:15;12.20;99.90
21744;DHT22;11034;48.556;9.342;2024-03-02T10:55:43;12.20;99.90
21744;DHT22;11034;48.556;9.342;2024-03-02T10:58:12;12.30;99.90
21744;DHT22;11034;48.556;9.342;2024-03-02T11:00:42;12.30;99.90
21744;DHT22;11034;48.556;9.342;2024-03-02T11:03:13;12.40;99.90
21744;DHT22;11034;48.556;9.342;2024-03-02T11:05:44;12.50;99.90
21744;DHT22;11034;48.556;9.342;2024-03-02T11:08:18;12.50;99.90
21744;DHT22;11034;48.556;9.342;2024-03-02T11:10:50;12.50;99.90
21744;DHT22;11034;48.556;9.342;2024-03-02T11:13:22;12.60;99.90
21744;DHT22;11034;48.556;9.342;2024-03-02T11:15:55;12.60;99.90
21744;DHT22;11034;48.556;9.342;2024-03-02T11:18:27;12.70;99.90
21744;DHT22;11034;48.556;9.342;2024-03-02T11:20:56;12.70;99.90
21744;DHT22;11034;48.556;9.342;2024-03-02T11:23:34;12.80;99.90
21744;DHT22;11034;48.556;9.342;2024-03-02T11:26:17;12.90;99.90
21744;DHT22;11034;48.556;9.342;2024-03-02T11:28:46;13.00;99.90
21744;DHT22;11034;48.556;9.342;2024-03-02T11:31:14;12.90;99.90
21744;DHT22;11034;48.556;9.342;2024-03-02T11:33:42;13.00;99.90
21744;DHT22;11034;48.556;9.342;2024-03-02T11:36:10;13.10;99.90
21744;DHT22;11034;48.556;9.342;2024-03-02T11:38:43;13.10;99.90
21744;DHT22;11034;48.556;9.342;2024-03-02T11:41:12;13.00;99.90
21744;DHT22;11034;48.556;9.342;2024-03-02T11:43:42;13.00;99.90
21744;DHT22;11034;48.556;9.342;2024-03-02T11:46:12;13.10;99.90
21744;DHT22;11034;48.556;9.342;2024-03-02T11:48:43;13.20;99.90
21744;DHT22;11034;48.556;9.342;2024-03-02T11:51:11;13.40;99.90
21744;DHT22;11034;48.556;9.342;2024-03-02T11:53:41;13.30;99.90
21744;DHT22;11034;48.556;9.342;2024-03-02T11:56:12;13.30;99.90
21744;DHT22;11034;48.556;9.342;2024-03-02T11:58:41;13.30;99.90
21744;DHT22;11034;48.556;9.342;2024-03-02T12:01:10;13.40;99.90
21744;DHT22;11034;48.556;9.342;2024-03-02T12:03:40;13.50;99.90
21744;DHT22;11034;48.556;9.342;2024-03-02T12:06:09;13.50;99.90
21744;DHT22;11034;48.556;9.342;2024-03-02T12:08:37;13.60;99.90
21744;DHT22;11034;48.556;9.342;2024-03-02T12:11:07;13.60;99.90
21744;DHT22;11034;48.556;9.342;2024-03-02T12:13:35;13.50;99.90
21744;DHT22;11034;48.556;9.342;2024-03-02T12:16:04;13.50;99.90
21744;DHT22;11034;48.556;9.342;2024-03-02T12:18:32;13.50;99.90
21744;DHT22;11034;48.556;9.342;2024-03-02T12:21:01;13.40;99.90
21744;DHT22;11034;48.556;9.342;2024-03-02T12:23:30;13.40;99.90
21744;DHT22;11034;48.556;9.342;2024-03-02T12:25:59;13.60;99.90
21744;DHT22;11034;48.556;9.342;2024-03-02T12:28:28;13.60;99.90
21744;DHT22;11034;48.556;9.342;2024-03-02T12:30:58;13.70;99.90
21744;DHT22;11034;48.556;9.342;2024-03-02T12:33:27;13.70;99.90
21744;DHT22;11034;48.556;9.342;2024-03-02T12:35:57;13.80;99.90
21744;DHT22;11034;48.556;9.342;2024-03-02T12:38:25;13.70;99.90
21744;DHT22;11034;48.556;9.342;2024-03-02T12:40:54;13.70;99.90
21744;DHT22;11034;48.556;9.342;2024-03-02T12:43:22;13.80;99.90
21744;DHT22;11034;48.556;9.342;2024-03-02T12:45:53;13.70;99.90
21744;DHT22;11034;48.556;9.342;2024-03-02T12:48:22;13.70;99.90
21744;DHT22;11034;48.556;9.342;2024-03-02T12:50:51;13.70;99.90
21744;DHT22;11034;48.556;9.342;2024-03-02T12:53:19;13.70;99.90
21744;DHT22;11034;48.556;9.342;2024-03-02T12:55:49;13.80;99.90
21744;DHT22;11034;48.556;9.342;2024-03-02T12:58:18;13.80;99.90
21744;DHT22;11034;48.556;9.342;2024-03-02T13:00:47;13.90;99.90
21744;DHT22;11034;48.556;9.342;2024-03-02T13:03:18;13.90;99.90
21744;DHT22;11034;48.556;9.342;2024-03-02T13:05:50;13.70;99.90
21744;DHT22;11034;48.556;9.342;2024-03-02T13:08:20;13.80;99.90
21744;DHT22;11034;48.556;9.342;2024-03-02T13:10:48;13.80;99.90
21744;DHT22;11034;48.556;9.342;2024-03-02T13:13:16;13.90;99.90
21744;DHT22;11034;48.556;9.342;2024-03-02T13:15:44;13.90;99.90
21744;DHT22;11034;48.556;9.342;2024-03-02T13:18:12;13.80;99.90
21744;DHT22;11034;48.556;9.342;2024-03-02T13:20:42;13.80;99.90
21744;DHT22;11034;48.556;9.342;2024-03-02T13:23:10;13.90;99.90
21744;DHT22;11034;48.556;9.342;2024-03-02T13:25:39;13.80;99.90
21744;DHT22;11034;48.556;9.342;2024-03-02T13:28:07;13.80;99.90
21744;DHT22;11034;48.556;9.342;2024-03-02T13:30:36;13.80;99.90
21744;DHT22;11034;48.556;9.342;2024-03-02T13:33:04;13.80;99.90
21744;DHT22;11034;48.556;9.342;2024-03-02T13:35:33;13.80;99.90
21744;DHT22;11034;48.556;9.342;2024-03-02T13:38:02;13.90;99.90
21744;DHT22;11034;48.556;9.342;2024-03-02T13:40:31;13.80;99.90
21744;DHT22;11034;48.556;9.342;2024-03-02T13:43:02;13.90;99.90
21744;DHT22;11034;48.556;9.342;2024-03-02T13:45:31;13.80;99.90
21744;DHT22;11034;48.556;9.342;2024-03-02T13:48:00;13.80;99.90
21744;DHT22;11034;48.556;9.342;2024-03-02T13:50:28;13.80;99.90
21744;DHT22;11034;48.556;9.342;2024-03-02T13:52:57;13.80;99.90
21744;DHT22;11034;48.556;9.342;2024-03-02T13:55:26;13.80;99.90
21744;DHT22;11034;48.556;9.342;2024-03-02T13:57:55;13.80;99.90
21744;DHT22;11034;48.556;9.342;2024-03-02T14:00:23;13.90;99.90
21744;DHT22;11034;48.556;9.342;2024-03-02T14:02:52;13.80;99.90
21744;DHT22;11034;48.556;9.342;2024-03-02T14:05:20;13.80;99.90
21744;DHT22;11034;48.556;9.342;2024-03-02T14:07:48;13.80;99.90
21744;DHT22;11034;48.556;9.342;2024-03-02T14:10:17;13.80;99.90
21744;DHT22;11034;48.556;9.342;2024-03-02T14:12:50;13.70;99.90
21744;DHT22;11034;48.556;9.342;2024-03-02T14:15:18;13.70;99.90
21744;DHT22;11034;48.556;9.342;2024-03-02T14:17:47;13.70;99.90
21744;DHT22;11034;48.556;9.342;2024-03-02T14:20:16;13.70;99.90
21744;DHT22;11034;48.556;9.342;2024-03-02T14:22:49;13.60;99.90
21744;DHT22;11034;48.556;9.342;2024-03-02T14:25:17;13.60;99.90
21744;DHT22;11034;48.556;9.342;2024-03-02T14:27:46;13.60;99.90
21744;DHT22;11034;48.556;9.342;2024-03-02T14:30:35;13.50;99.90
21744;DHT22;11034;48.556;9.342;2024-03-02T14:33:04;13.60;99.90
21744;DHT22;11034;48.556;9.342;2024-03-02T14:35:32;13.60;99.90
21744;DHT22;11034;48.556;9.342;2024-03-02T14:38:01;13.50;99.90
21744;DHT22;11034;48.556;9.342;2024-03-02T14:40:29;13.50;99.90
21744;DHT22;11034;48.556;9.342;2024-03-02T14:42:57;13.50;99.90
21744;DHT22;11034;48.556;9.342;2024-03-02T14:45:26;13.50;99.90
21744;DHT22;11034;48.556;9.342;2024-03-02T14:47:56;13.50;99.90
21744;DHT22;11034;48.556;9.342;2024-03-02T14:50:26;13.50;99.90
21744;DHT22;11034;48.556;9.342;2024-03-02T14:52:55;13.50;99.90
21744;DHT22;11034;48.556;9.342;2024-03-02T14:55:24;13.50;99.90
21744;DHT22;11034;48.556;9.342;2024-03-02T14:57:52;13.50;99.90
21744;DHT22;11034;48.556;9.342;2024-03-02T15:00:21;13.50;99.90
21744;DHT22;11034;48.556;9.342;2024-03-02T15:02:49;13.40;99.90
21744;DHT22;11034;48.556;9.342;2024-03-02T15:05:18;13.30;99.90
21744;DHT22;11034;48.556;9.342;2024-03-02T15:07:46;13.30;99.90
21744;DHT22;11034;48.556;9.342;2024-03-02T15:10:15;13.20;99.90
21744;DHT22;11034;48.556;9.342;2024-03-02T15:12:43;13.20;99.90
21744;DHT22;11034;48.556;9.342;2024-03-02T15:15:11;13.10;99.90
21744;DHT22;11034;48.556;9.342;2024-03-02T15:17:40;13.00;99.90
21744;DHT22;11034;48.556;9.342;2024-03-02T15:20:09;12.90;99.90
21744;DHT22;11034;48.556;9.342;2024-03-02T15:22:38;12.80;99.90
21744;DHT22;11034;48.556;9.342;2024-03-02T15:25:07;12.70;99.90
21744;DHT22;11034;48.556;9.342;2024-03-02T15:27:35;12.50;99.90
21744;DHT22;11034;48.556;9.342;2024-03-02T15:30:05;12.40;99.90
21744;DHT22;11034;48.556;9.342;2024-03-02T15:32:33;12.30;99.90
21744;DHT22;11034;48.556;9.342;2024-03-02T15:35:04;12.20;99.90
21744;DHT22;11034;48.556;9.342;2024-03-02T15:37:32;12.10;99.90
21744;DHT22;11034;48.556;9.342;2024-03-02T15:40:02;12.00;99.90
21744;DHT22;11034;48.556;9.342;2024-03-02T15:42:33;11.90;99.90
21744;DHT22;11034;48.556;9.342;2024-03-02T15:45:02;11.80;99.90
21744;DHT22;11034;48.556;9.342;2024-03-02T15:47:31;11.80;99.90
21744;DHT22;11034;48.556;9.342;2024-03-02T15:50:00;11.60;99.90
21744;DHT22;11034;48.556;9.342;2024-03-02T15:52:29;11.50;99.90